createdAt,value
2023-01-06T00:00:34.156Z,1.30
2023-01-06T00:03:01.032Z,1.13
2023-01-06T00:05:29.261Z,1.20
2023-01-06T00:07:56.150Z,1.50
2023-01-06T00:10:22.940Z,1.33
2023-01-06T00:12:49.958Z,1.50
2023-01-06T00:15:17.205Z,1.60
2023-01-06T00:17:44.081Z,1.17
2023-01-06T00:20:11.800Z,1.70
2023-01-06T00:22:42.088Z,1.25
2023-01-06T00:25:12.148Z,1.55
2023-01-06T00:27:39.584Z,1.50
2023-01-06T00:30:07.124Z,1.50
2023-01-06T00:32:33.880Z,1.40
2023-01-06T00:35:00.687Z,1.67
2023-01-06T00:37:27.525Z,1.40
2023-01-06T00:39:54.166Z,1.55
2023-01-06T00:42:22.549Z,1.48
2023-01-06T00:44:49.578Z,1.00
2023-01-06T00:47:16.514Z,1.45
2023-01-06T00:49:43.184Z,1.25
2023-01-06T00:52:10.007Z,1.50
2023-01-06T00:54:39.501Z,2.30
2023-01-06T00:57:07.180Z,2.13
2023-01-06T00:59:34.164Z,1.48
2023-01-06T01:02:01.255Z,1.77
2023-01-06T01:04:29.239Z,1.65
2023-01-06T01:06:56.083Z,1.70
2023-01-06T01:09:27.855Z,1.92
2023-01-06T01:12:13.034Z,1.80
2023-01-06T01:14:43.055Z,2.10
2023-01-06T01:17:11.163Z,2.17
2023-01-06T01:19:38.347Z,2.42
2023-01-06T01:22:05.106Z,2.58
2023-01-06T01:24:31.771Z,2.13
2023-01-06T01:26:58.762Z,2.42
2023-01-06T01:29:26.435Z,2.50
2023-01-06T01:31:53.411Z,2.45
2023-01-06T01:34:20.617Z,2.63
2023-01-06T01:36:48.326Z,2.50
2023-01-06T01:39:17.137Z,2.92
2023-01-06T01:41:43.933Z,2.63
2023-01-06T01:44:48.063Z,3.22
2023-01-06T01:47:17.279Z,2.80
2023-01-06T01:49:44.751Z,3.33
2023-01-06T01:52:11.507Z,3.05
2023-01-06T01:54:38.161Z,3.38
2023-01-06T01:57:09.893Z,3.30
2023-01-06T01:59:37.643Z,3.20
2023-01-06T02:02:04.679Z,3.08
2023-01-06T02:04:32.996Z,2.83
2023-01-06T02:06:59.807Z,3.00
2023-01-06T02:09:44.726Z,2.47
2023-01-06T02:12:11.393Z,2.83
2023-01-06T02:14:38.020Z,2.78
2023-01-06T02:17:13.988Z,3.25
2023-01-06T02:20:19.095Z,3.13
2023-01-06T02:22:54.545Z,2.90
2023-01-06T02:26:01.065Z,2.80
2023-01-06T02:28:57.649Z,2.92
2023-01-06T02:31:36.363Z,3.58
2023-01-06T02:34:24.861Z,2.88
2023-01-06T02:37:14.950Z,2.90
2023-01-06T02:40:01.773Z,2.80
2023-01-06T02:42:52.237Z,3.03
2023-01-06T02:45:41.630Z,2.63
2023-01-06T02:48:15.397Z,3.10
2023-01-06T02:50:44.855Z,3.00
2023-01-06T02:53:14.299Z,3.63
2023-01-06T02:55:45.295Z,2.50
2023-01-06T02:58:28.501Z,2.85
2023-01-06T03:01:38.008Z,2.60
2023-01-06T03:04:07.774Z,2.65
2023-01-06T03:06:34.822Z,2.58
2023-01-06T03:09:01.590Z,2.63
2023-01-06T03:11:29.444Z,2.92
2023-01-06T03:13:56.063Z,2.95
2023-01-06T03:16:22.855Z,2.67
2023-01-06T03:18:50.642Z,2.83
2023-01-06T03:21:21.138Z,2.83
2023-01-06T03:23:47.898Z,2.88
2023-01-06T03:26:14.707Z,2.50
2023-01-06T03:28:41.415Z,2.05
2023-01-06T03:31:23.495Z,2.35
2023-01-06T03:33:54.950Z,2.80
2023-01-06T03:36:39.899Z,2.53
2023-01-06T03:39:20.932Z,2.72
2023-01-06T03:42:09.682Z,2.40
2023-01-06T03:44:41.945Z,2.78
2023-01-06T03:47:24.823Z,2.90
2023-01-06T03:50:23.700Z,2.42
2023-01-06T03:53:04.103Z,3.03
2023-01-06T03:55:31.451Z,2.78
2023-01-06T03:57:58.648Z,3.00
2023-01-06T04:00:28.702Z,2.50
2023-01-06T04:02:55.549Z,2.60
2023-01-06T04:05:24.128Z,2.65
2023-01-06T04:07:50.952Z,2.40
2023-01-06T04:10:18.750Z,2.60
2023-01-06T04:12:45.739Z,2.70
2023-01-06T04:15:14.694Z,3.10
2023-01-06T04:17:42.163Z,2.88
2023-01-06T04:20:11.479Z,2.90
2023-01-06T04:22:38.235Z,3.38
2023-01-06T04:25:06.159Z,2.70
2023-01-06T04:27:33.079Z,3.13
2023-01-06T04:29:59.766Z,2.63
2023-01-06T04:32:26.522Z,2.92
2023-01-06T04:34:53.232Z,2.58
2023-01-06T04:37:21.424Z,3.20
2023-01-06T04:39:48.324Z,2.85
2023-01-06T04:42:15.020Z,2.90
2023-01-06T04:44:42.734Z,3.13
2023-01-06T04:47:10.886Z,2.95
2023-01-06T04:49:37.794Z,3.80
2023-01-06T04:52:05.540Z,3.50
2023-01-06T04:54:32.189Z,3.22
2023-01-06T04:56:58.881Z,3.38
2023-01-06T04:59:25.571Z,4.00
2023-01-06T05:01:52.368Z,3.90
2023-01-06T05:04:19.246Z,3.42
2023-01-06T05:06:46.122Z,3.63
2023-01-06T05:09:12.846Z,3.75
2023-01-06T05:11:39.571Z,3.38
2023-01-06T05:14:06.211Z,3.78
2023-01-06T05:16:34.708Z,3.53
2023-01-06T05:19:01.963Z,3.80
2023-01-06T05:21:32.538Z,3.38
2023-01-06T05:23:59.993Z,2.80
2023-01-06T05:26:28.915Z,2.88
2023-01-06T05:28:56.478Z,3.30
2023-01-06T05:31:23.748Z,2.90
2023-01-06T05:33:50.613Z,3.17
2023-01-06T05:36:18.391Z,2.95
2023-01-06T05:38:50.784Z,3.00
2023-01-06T05:41:17.532Z,2.95
2023-01-06T05:43:44.209Z,2.50
2023-01-06T05:46:11.658Z,2.60
2023-01-06T05:48:39.885Z,2.10
2023-01-06T05:51:13.333Z,2.80
2023-01-06T05:53:41.897Z,2.42
2023-01-06T05:56:10.262Z,2.60
2023-01-06T05:58:37.514Z,3.30
2023-01-06T06:01:04.872Z,5.13
2023-01-06T06:03:32.151Z,5.95
2023-01-06T06:06:06.127Z,4.95
2023-01-06T06:08:33.347Z,5.20
2023-01-06T06:11:07.474Z,3.90
2023-01-06T06:13:34.265Z,3.58
2023-01-06T06:16:11.596Z,3.55
2023-01-06T06:18:44.750Z,3.05
2023-01-06T06:21:13.243Z,3.00
2023-01-06T06:23:40.389Z,3.10
2023-01-06T06:26:07.698Z,2.67
2023-01-06T06:28:35.132Z,2.80
2023-01-06T06:31:08.766Z,2.72
2023-01-06T06:33:35.473Z,3.20
2023-01-06T06:36:02.579Z,3.10
2023-01-06T06:38:29.470Z,3.33
2023-01-06T06:40:56.187Z,3.13
2023-01-06T06:43:23.092Z,3.00
2023-01-06T06:45:49.950Z,3.08
2023-01-06T06:48:17.129Z,3.20
2023-01-06T06:50:43.838Z,2.80
2023-01-06T06:53:10.569Z,2.55
2023-01-06T06:55:37.260Z,2.05
2023-01-06T06:58:03.986Z,2.20
2023-01-06T07:00:30.679Z,2.15
2023-01-06T07:02:57.366Z,2.15
2023-01-06T07:05:25.761Z,2.50
2023-01-06T07:07:52.479Z,2.78
2023-01-06T07:10:22.158Z,2.35
2023-01-06T07:12:48.847Z,2.20
2023-01-06T07:15:15.562Z,2.72
2023-01-06T07:17:42.287Z,2.38
2023-01-06T07:20:09.927Z,2.80
2023-01-06T07:22:40.055Z,2.80
2023-01-06T07:25:08.002Z,2.95
2023-01-06T07:27:35.062Z,3.00
2023-01-06T07:30:02.295Z,3.00
2023-01-06T07:32:29.104Z,2.83
2023-01-06T07:34:55.866Z,3.58
2023-01-06T07:37:22.597Z,3.17
2023-01-06T07:39:49.314Z,3.20
2023-01-06T07:42:16.028Z,3.28
2023-01-06T07:44:42.705Z,2.95
2023-01-06T07:47:10.638Z,4.90
2023-01-06T07:49:37.316Z,5.25
2023-01-06T07:52:04.119Z,4.20
2023-01-06T07:54:31.122Z,4.10
2023-01-06T07:56:57.872Z,3.72
2023-01-06T07:59:24.580Z,3.92
2023-01-06T08:01:51.296Z,3.88
2023-01-06T08:04:18.052Z,3.20
2023-01-06T08:06:44.762Z,3.80
2023-01-06T08:09:11.429Z,3.38
2023-01-06T08:11:38.141Z,2.90
2023-01-06T08:14:04.776Z,1.80
2023-01-06T08:16:31.457Z,2.38
2023-01-06T08:18:58.099Z,1.92
2023-01-06T08:21:24.805Z,1.85
2023-01-06T08:23:51.406Z,1.42
2023-01-06T08:26:18.293Z,1.52
2023-01-06T08:28:45.929Z,1.63
2023-01-06T08:31:17.703Z,1.50
2023-01-06T08:33:44.796Z,1.30
2023-01-06T08:36:16.856Z,1.50
2023-01-06T08:38:43.882Z,2.22
2023-01-06T08:41:10.953Z,2.30
2023-01-06T08:43:38.800Z,1.92
2023-01-06T08:46:07.676Z,1.10
2023-01-06T08:48:35.275Z,0.70
2023-01-06T08:51:06.999Z,0.95
2023-01-06T08:53:33.822Z,1.00
2023-01-06T08:56:00.585Z,0.88
2023-01-06T08:58:27.293Z,0.60
2023-01-06T09:00:54.013Z,1.00
2023-01-06T09:03:20.770Z,1.20
2023-01-06T09:05:57.772Z,1.25
2023-01-06T09:08:24.632Z,1.13
2023-01-06T09:10:51.467Z,0.80
2023-01-06T09:13:18.414Z,0.80
2023-01-06T09:15:48.991Z,0.70
2023-01-06T09:18:16.062Z,0.90
2023-01-06T09:20:42.758Z,2.78
2023-01-06T09:23:09.470Z,4.38
2023-01-06T09:25:36.196Z,4.13
2023-01-06T09:28:02.906Z,2.80
2023-01-06T09:30:29.663Z,3.90
2023-01-06T09:32:56.424Z,1.17
2023-01-06T09:35:23.157Z,1.20
2023-01-06T09:37:50.212Z,1.15
2023-01-06T09:40:23.093Z,1.08
2023-01-06T09:43:02.170Z,0.63
2023-01-06T09:45:36.533Z,0.70
2023-01-06T09:48:04.625Z,0.93
2023-01-06T09:50:42.374Z,1.20
2023-01-06T09:53:22.845Z,0.75
2023-01-06T09:55:52.501Z,0.90
2023-01-06T09:58:23.083Z,1.00
2023-01-06T10:00:53.118Z,1.88
2023-01-06T10:03:22.398Z,1.38
2023-01-06T10:05:58.687Z,1.40
2023-01-06T10:08:37.663Z,1.27
2023-01-06T10:11:30.887Z,1.38
2023-01-06T10:14:01.027Z,2.08
2023-01-06T10:16:42.460Z,1.10
2023-01-06T10:20:00.473Z,1.50
2023-01-06T10:22:48.878Z,0.65
2023-01-06T10:25:19.893Z,0.82
2023-01-06T10:27:51.876Z,0.90
2023-01-06T10:30:30.542Z,0.73
2023-01-06T10:32:58.108Z,0.60
2023-01-06T10:35:26.106Z,1.00
2023-01-06T10:37:53.575Z,1.10
2023-01-06T10:40:29.640Z,1.00
2023-01-06T10:43:12.881Z,0.60
2023-01-06T10:48:18.700Z,0.50
2023-01-06T10:50:45.998Z,0.80
2023-01-06T10:53:14.278Z,0.98
2023-01-06T10:56:00.121Z,0.57
2023-01-06T10:58:47.699Z,0.63
2023-01-06T11:01:29.313Z,0.60
2023-01-06T11:04:08.133Z,0.40
2023-01-06T11:06:35.689Z,0.40
2023-01-06T11:09:21.526Z,0.52
2023-01-06T11:11:49.329Z,0.32
2023-01-06T11:14:20.950Z,0.30
2023-01-06T11:16:59.499Z,0.55
2023-01-06T11:19:38.495Z,0.77
2023-01-06T11:22:11.115Z,0.30
2023-01-06T11:24:53.173Z,0.35
2023-01-06T11:27:20.465Z,0.55
2023-01-06T11:29:47.369Z,1.17
2023-01-06T11:32:25.648Z,1.20
2023-01-06T11:35:01.513Z,0.70
2023-01-06T11:37:42.611Z,0.40
2023-01-06T11:40:30.171Z,0.35
2023-01-06T11:42:59.330Z,0.30
2023-01-06T11:45:34.781Z,0.40
2023-01-06T11:48:03.341Z,0.40
2023-01-06T11:50:30.482Z,1.05
2023-01-06T11:53:01.964Z,0.90
2023-01-06T11:55:29.314Z,0.30
2023-01-06T11:58:19.303Z,0.70
2023-01-06T12:01:00.581Z,0.73
2023-01-06T12:03:44.248Z,0.70
2023-01-06T12:06:14.559Z,0.75
2023-01-06T12:09:22.401Z,0.60
2023-01-06T12:11:57.425Z,0.50
2023-01-06T12:14:33.893Z,0.98
2023-01-06T12:17:09.537Z,0.93
2023-01-06T12:19:44.821Z,1.17
2023-01-06T12:22:36.033Z,0.50
2023-01-06T12:25:04.241Z,0.50
2023-01-06T12:27:40.087Z,0.55
2023-01-06T12:30:14.076Z,0.60
2023-01-06T12:32:42.424Z,1.00
2023-01-06T12:35:15.051Z,0.80
2023-01-06T12:37:45.861Z,0.88
2023-01-06T12:40:22.300Z,0.93
2023-01-06T12:43:11.243Z,0.85
2023-01-06T12:45:57.251Z,0.98
2023-01-06T12:48:37.118Z,0.68
2023-01-06T12:51:29.012Z,0.93
2023-01-06T12:54:18.180Z,0.60
2023-01-06T12:56:52.904Z,0.70
2023-01-06T12:59:32.180Z,1.10
2023-01-06T13:02:40.171Z,1.05
2023-01-06T13:05:19.486Z,1.10
2023-01-06T13:08:06.515Z,0.77
2023-01-06T13:10:40.119Z,0.82
2023-01-06T13:13:36.700Z,0.80
2023-01-06T13:16:31.787Z,0.68
2023-01-06T13:19:17.260Z,0.70
2023-01-06T13:21:47.932Z,0.50
2023-01-06T13:24:22.297Z,0.30
2023-01-06T13:27:23.312Z,0.30
2023-01-06T13:29:58.590Z,0.40
2023-01-06T13:32:43.201Z,0.70
2023-01-06T13:35:40.594Z,0.40
2023-01-06T13:38:42.952Z,0.57
2023-01-06T13:41:16.625Z,0.38
2023-01-06T13:43:44.989Z,0.57
2023-01-06T13:46:16.884Z,1.23
2023-01-06T13:48:49.949Z,0.57
2023-01-06T13:51:20.228Z,0.68
2023-01-06T13:53:50.573Z,0.52
2023-01-06T13:56:17.901Z,0.50
2023-01-06T13:58:48.208Z,0.45
2023-01-06T14:01:21.481Z,0.45
2023-01-06T14:03:50.355Z,0.90
2023-01-06T14:06:23.900Z,0.80
2023-01-06T14:08:57.483Z,1.10
2023-01-06T14:11:24.635Z,1.17
2023-01-06T14:13:57.024Z,1.20
2023-01-06T14:16:47.473Z,0.70
2023-01-06T14:19:19.620Z,1.10
2023-01-06T14:21:48.898Z,0.93
2023-01-06T14:24:31.956Z,0.95
2023-01-06T14:29:43.795Z,0.98
2023-01-06T14:32:12.804Z,0.93
2023-01-06T14:35:01.264Z,1.10
2023-01-06T14:37:53.080Z,1.08
2023-01-06T14:40:28.395Z,1.65
2023-01-06T14:42:57.548Z,1.20
2023-01-06T14:45:33.873Z,2.10
2023-01-06T14:48:14.122Z,1.00
2023-01-06T14:50:47.834Z,1.10
2023-01-06T14:53:43.601Z,1.15
2023-01-06T14:56:22.245Z,0.90
2023-01-06T14:58:49.452Z,1.05
2023-01-06T15:01:30.094Z,0.95
2023-01-06T15:03:59.011Z,1.23
2023-01-06T15:06:27.502Z,1.17
2023-01-06T15:08:56.022Z,1.30
2023-01-06T15:11:33.607Z,1.30
2023-01-06T15:14:00.729Z,1.35
2023-01-06T15:16:40.266Z,1.33
2023-01-06T15:19:13.149Z,1.70
2023-01-06T15:21:40.616Z,1.83
2023-01-06T15:24:20.988Z,1.23
2023-01-06T15:26:48.884Z,1.30
2023-01-06T15:29:23.872Z,1.42
2023-01-06T15:31:52.079Z,1.30
2023-01-06T15:34:33.643Z,1.20
2023-01-06T15:37:01.373Z,1.35
2023-01-06T15:39:32.230Z,1.88
2023-01-06T15:41:59.743Z,2.25
2023-01-06T15:44:35.195Z,2.08
2023-01-06T15:47:11.669Z,2.20
2023-01-06T15:49:51.000Z,2.10
2023-01-06T15:52:25.837Z,1.77
2023-01-06T15:55:00.120Z,1.45
2023-01-06T15:57:27.366Z,1.10
2023-01-06T16:00:01.649Z,1.40
2023-01-06T16:02:30.535Z,2.20
2023-01-06T16:04:59.710Z,2.63
2023-01-06T16:07:41.103Z,2.20
2023-01-06T16:10:31.507Z,1.90
2023-01-06T16:13:28.590Z,1.20
2023-01-06T16:16:29.083Z,1.13
2023-01-06T16:18:56.293Z,1.52
2023-01-06T16:21:28.963Z,1.58
2023-01-06T16:24:03.908Z,2.40
2023-01-06T16:26:33.375Z,2.35
2023-01-06T16:29:03.033Z,1.92
2023-01-06T16:31:34.618Z,2.05
2023-01-06T16:34:32.460Z,1.70
2023-01-06T16:37:02.204Z,2.00
2023-01-06T16:39:29.350Z,1.30
2023-01-06T16:42:00.352Z,2.92
2023-01-06T16:44:29.913Z,6.15
2023-01-06T16:46:57.820Z,4.90
2023-01-06T16:49:25.196Z,3.08
2023-01-06T16:51:52.473Z,2.55
2023-01-06T16:54:19.731Z,3.38
2023-01-06T16:56:47.656Z,2.92
2023-01-06T16:59:19.122Z,2.85
2023-01-06T17:01:48.505Z,3.00
2023-01-06T17:04:16.125Z,3.70
2023-01-06T17:06:44.864Z,4.25
2023-01-06T17:09:20.105Z,3.80
2023-01-06T17:11:51.666Z,2.95
2023-01-06T17:14:23.450Z,3.97
2023-01-06T17:16:52.695Z,3.80
2023-01-06T17:19:23.970Z,4.82
2023-01-06T17:21:53.232Z,7.30
2023-01-06T17:24:26.836Z,6.88
2023-01-06T17:27:01.054Z,5.85
2023-01-06T17:29:30.401Z,4.75
2023-01-06T17:31:58.736Z,4.00
2023-01-06T17:34:32.431Z,4.25
2023-01-06T17:37:03.845Z,3.45
2023-01-06T17:39:35.132Z,3.70
2023-01-06T17:42:13.188Z,4.32
2023-01-06T17:44:47.652Z,3.85
2023-01-06T17:47:17.521Z,3.53
2023-01-06T17:49:46.391Z,3.10
2023-01-06T17:52:20.742Z,2.97
2023-01-06T17:55:19.049Z,3.55
2023-01-06T17:57:47.398Z,3.00
2023-01-06T18:00:22.472Z,2.83
2023-01-06T18:02:55.867Z,3.00
2023-01-06T18:05:25.903Z,2.50
2023-01-06T18:08:06.359Z,4.22
2023-01-06T18:10:51.119Z,4.00
2023-01-06T18:13:20.560Z,3.22
2023-01-06T18:15:57.082Z,3.13
2023-01-06T18:18:37.474Z,2.80
2023-01-06T18:21:16.860Z,2.55
2023-01-06T18:23:45.517Z,3.25
2023-01-06T18:26:38.933Z,2.75
2023-01-06T18:29:16.077Z,2.50
2023-01-06T18:31:43.554Z,2.58
2023-01-06T18:34:40.362Z,2.58
2023-01-06T18:37:07.476Z,2.40
2023-01-06T18:39:46.639Z,2.78
2023-01-06T18:42:35.148Z,3.42
2023-01-06T18:45:09.519Z,3.88
2023-01-06T18:47:38.758Z,4.18
2023-01-06T18:50:39.050Z,3.50
2023-01-06T18:53:15.196Z,4.22
2023-01-06T18:56:06.483Z,4.55
2023-01-06T18:58:47.598Z,4.43
2023-01-06T19:01:37.559Z,4.25
2023-01-06T19:04:29.327Z,4.35
2023-01-06T19:07:01.273Z,4.10
2023-01-06T19:09:41.390Z,3.85
2023-01-06T19:12:08.453Z,4.07
2023-01-06T19:14:48.146Z,4.55
2023-01-06T19:17:28.044Z,5.15
2023-01-06T19:19:56.647Z,5.50
2023-01-06T19:22:30.828Z,5.82
2023-01-06T19:25:08.855Z,5.97
2023-01-06T19:27:41.004Z,5.82
2023-01-06T19:30:46.968Z,4.87
2023-01-06T19:33:26.440Z,7.30
2023-01-06T19:36:00.266Z,5.38
2023-01-06T19:38:35.773Z,6.30
2023-01-06T19:41:03.871Z,7.15
2023-01-06T19:43:32.807Z,5.35
2023-01-06T19:46:22.880Z,5.45
2023-01-06T19:48:50.069Z,5.40
2023-01-06T19:51:36.039Z,5.90
2023-01-06T19:54:04.528Z,5.72
2023-01-06T19:56:35.857Z,6.05
2023-01-06T19:59:14.735Z,5.50
2023-01-06T20:01:41.859Z,5.00
2023-01-06T20:04:25.648Z,5.30
2023-01-06T20:06:52.586Z,5.25
2023-01-06T20:09:21.748Z,4.95
2023-01-06T20:11:50.281Z,5.18
2023-01-06T20:14:17.851Z,5.80
2023-01-06T20:16:44.876Z,6.47
2023-01-06T20:19:11.786Z,6.43
2023-01-06T20:21:40.252Z,6.55
2023-01-06T20:24:11.307Z,6.57
2023-01-06T20:26:38.587Z,6.38
2023-01-06T20:29:06.103Z,6.18
2023-01-06T20:34:40.431Z,6.03
2023-01-06T20:37:14.503Z,6.70
2023-01-06T20:39:44.562Z,7.15
2023-01-06T20:42:13.483Z,6.20
2023-01-06T20:44:41.239Z,6.22
2023-01-06T20:47:11.550Z,6.47
2023-01-06T20:49:49.119Z,6.65
2023-01-06T20:52:16.843Z,6.50
2023-01-06T20:55:00.239Z,6.72
2023-01-06T20:57:31.014Z,6.78
2023-01-06T21:00:36.257Z,9.48
2023-01-06T21:03:10.392Z,9.07
2023-01-06T21:05:41.160Z,8.93
2023-01-06T21:08:13.615Z,8.50
2023-01-06T21:11:04.661Z,7.55
2023-01-06T21:13:33.577Z,6.65
2023-01-06T21:16:25.083Z,6.65
2023-01-06T21:19:02.075Z,6.90
2023-01-06T21:21:29.979Z,5.95
2023-01-06T21:24:11.343Z,5.05
2023-01-06T21:26:40.048Z,5.20
2023-01-06T21:29:08.173Z,4.20
2023-01-06T21:31:36.027Z,3.15
2023-01-06T21:34:03.938Z,3.10
2023-01-06T21:36:32.965Z,3.17
2023-01-06T21:39:00.889Z,2.88
2023-01-06T21:41:48.435Z,2.55
2023-01-06T21:44:19.221Z,2.10
2023-01-06T21:46:53.702Z,2.47
2023-01-06T21:49:27.044Z,2.10
2023-01-06T21:51:55.282Z,2.60
2023-01-06T21:54:25.972Z,2.53
2023-01-06T21:57:00.868Z,3.00
2023-01-06T21:59:31.421Z,2.70
2023-01-06T22:01:59.741Z,3.13
2023-01-06T22:04:29.733Z,2.70
2023-01-06T22:06:59.092Z,2.40
2023-01-06T22:09:26.549Z,4.25
2023-01-06T22:11:53.755Z,3.15
2023-01-06T22:14:20.687Z,2.67
2023-01-06T22:16:48.084Z,3.42
2023-01-06T22:19:15.234Z,3.17
2023-01-06T22:21:44.409Z,3.67
2023-01-06T22:24:12.118Z,3.60
2023-01-06T22:26:39.210Z,3.60
2023-01-06T22:29:08.376Z,2.42
2023-01-06T22:31:36.553Z,3.38
2023-01-06T22:34:03.999Z,2.80
2023-01-06T22:36:31.195Z,2.33
2023-01-06T22:38:58.192Z,1.95
2023-01-06T22:41:25.429Z,2.22
2023-01-06T22:43:52.486Z,2.75
2023-01-06T22:46:19.231Z,3.15
2023-01-06T22:48:45.938Z,1.63
2023-01-06T22:51:12.648Z,1.30
2023-01-06T22:53:39.394Z,1.27
2023-01-06T22:56:08.351Z,1.30
2023-01-06T22:58:36.408Z,1.35
2023-01-06T23:01:03.734Z,1.25
2023-01-06T23:03:30.560Z,1.10
2023-01-06T23:06:02.580Z,1.73
2023-01-06T23:08:30.619Z,1.30
2023-01-06T23:11:06.404Z,1.40
2023-01-06T23:13:34.187Z,1.60
2023-01-06T23:16:00.917Z,1.67
2023-01-06T23:18:27.675Z,1.38
2023-01-06T23:21:02.879Z,2.00
2023-01-06T23:23:29.775Z,2.00
2023-01-06T23:26:05.053Z,1.67
2023-01-06T23:28:32.226Z,1.50
2023-01-06T23:31:06.065Z,1.25
2023-01-06T23:33:36.769Z,1.70
2023-01-06T23:36:03.803Z,1.58
2023-01-06T23:38:30.902Z,1.35
2023-01-06T23:41:02.568Z,1.48
2023-01-06T23:43:30.849Z,1.35
2023-01-06T23:46:05.637Z,1.30
2023-01-06T23:48:32.801Z,1.65
2023-01-06T23:51:00.221Z,1.63
2023-01-06T23:53:27.731Z,1.50
2023-01-06T23:55:58.622Z,1.10
2023-01-06T23:58:25.770Z,1.60
